sensor_id;sensor_type;location;lat;lon;timestamp;P1;durP1;ratioP1;P2;durP2;ratioP2
55718;SDS011;41623;46.104;19.656;2023-01-29T00:02:19;22.83;;;8.68;;
55718;SDS011;41623;46.104;19.656;2023-01-29T00:04:45;11.00;;;5.97;;
55718;SDS011;41623;46.104;19.656;2023-01-29T00:07:11;16.05;;;7.70;;
55718;SDS011;41623;46.104;19.656;2023-01-29T00:09:37;15.00;;;5.68;;
55718;SDS011;41623;46.104;19.656;2023-01-29T00:12:04;19.67;;;7.15;;
55718;SDS011;41623;46.104;19.656;2023-01-29T00:14:33;19.95;;;7.00;;
55718;SDS011;41623;46.104;19.656;2023-01-29T00:16:59;16.15;;;8.35;;
55718;SDS011;41623;46.104;19.656;2023-01-29T00:19:25;25.27;;;9.43;;
55718;SDS011;41623;46.104;19.656;2023-01-29T00:21:51;11.05;;;5.60;;
55718;SDS011;41623;46.104;19.656;2023-01-29T00:24:17;10.68;;;5.30;;
55718;SDS011;41623;46.104;19.656;2023-01-29T00:26:43;13.18;;;6.22;;
55718;SDS011;41623;46.104;19.656;2023-01-29T00:29:09;24.15;;;8.25;;
55718;SDS011;41623;46.104;19.656;2023-01-29T00:31:35;15.32;;;8.32;;
55718;SDS011;41623;46.104;19.656;2023-01-29T00:34:02;16.98;;;8.15;;
55718;SDS011;41623;46.104;19.656;2023-01-29T00:36:28;13.35;;;7.20;;
55718;SDS011;41623;46.104;19.656;2023-01-29T00:38:54;22.42;;;11.15;;
55718;SDS011;41623;46.104;19.656;2023-01-29T00:41:23;16.88;;;11.98;;
55718;SDS011;41623;46.104;19.656;2023-01-29T00:44:09;22.77;;;10.05;;
55718;SDS011;41623;46.104;19.656;2023-01-29T00:46:53;11.07;;;7.55;;
55718;SDS011;41623;46.104;19.656;2023-01-29T00:49:20;14.80;;;7.78;;
55718;SDS011;41623;46.104;19.656;2023-01-29T00:51:46;15.27;;;6.82;;
55718;SDS011;41623;46.104;19.656;2023-01-29T00:54:30;12.30;;;5.60;;
55718;SDS011;41623;46.104;19.656;2023-01-29T00:56:56;15.30;;;8.35;;
55718;SDS011;41623;46.104;19.656;2023-01-29T00:59:22;14.02;;;8.60;;
55718;SDS011;41623;46.104;19.656;2023-01-29T01:01:48;12.05;;;5.53;;
55718;SDS011;41623;46.104;19.656;2023-01-29T01:04:34;11.35;;;5.55;;
55718;SDS011;41623;46.104;19.656;2023-01-29T01:07:00;8.98;;;6.07;;
55718;SDS011;41623;46.104;19.656;2023-01-29T01:09:27;10.82;;;5.53;;
55718;SDS011;41623;46.104;19.656;2023-01-29T01:12:11;6.53;;;4.38;;
55718;SDS011;41623;46.104;19.656;2023-01-29T01:14:37;11.88;;;6.78;;
55718;SDS011;41623;46.104;19.656;2023-01-29T01:17:07;13.27;;;6.30;;
55718;SDS011;41623;46.104;19.656;2023-01-29T01:19:33;13.93;;;6.47;;
55718;SDS011;41623;46.104;19.656;2023-01-29T01:21:59;8.60;;;4.65;;
55718;SDS011;41623;46.104;19.656;2023-01-29T01:24:25;10.75;;;4.68;;
55718;SDS011;41623;46.104;19.656;2023-01-29T01:26:51;10.52;;;4.70;;
55718;SDS011;41623;46.104;19.656;2023-01-29T01:29:17;11.00;;;6.03;;
55718;SDS011;41623;46.104;19.656;2023-01-29T01:31:43;10.43;;;5.22;;
55718;SDS011;41623;46.104;19.656;2023-01-29T01:34:09;7.55;;;5.20;;
55718;SDS011;41623;46.104;19.656;2023-01-29T01:36:36;11.93;;;6.03;;
55718;SDS011;41623;46.104;19.656;2023-01-29T01:39:02;11.93;;;5.60;;
55718;SDS011;41623;46.104;19.656;2023-01-29T01:41:28;5.80;;;3.63;;
55718;SDS011;41623;46.104;19.656;2023-01-29T01:43:56;6.82;;;4.40;;
55718;SDS011;41623;46.104;19.656;2023-01-29T01:46:29;9.82;;;4.88;;
55718;SDS011;41623;46.104;19.656;2023-01-29T01:51:30;10.93;;;5.45;;
55718;SDS011;41623;46.104;19.656;2023-01-29T01:54:05;11.90;;;5.25;;
55718;SDS011;41623;46.104;19.656;2023-01-29T01:56:32;8.40;;;5.03;;
55718;SDS011;41623;46.104;19.656;2023-01-29T01:59:04;10.52;;;5.35;;
55718;SDS011;41623;46.104;19.656;2023-01-29T02:01:31;10.18;;;5.88;;
55718;SDS011;41623;46.104;19.656;2023-01-29T02:04:01;11.75;;;4.97;;
55718;SDS011;41623;46.104;19.656;2023-01-29T02:06:47;7.97;;;3.67;;
55718;SDS011;41623;46.104;19.656;2023-01-29T02:09:40;14.00;;;5.50;;
55718;SDS011;41623;46.104;19.656;2023-01-29T02:12:10;5.70;;;3.05;;
55718;SDS011;41623;46.104;19.656;2023-01-29T02:14:37;7.18;;;5.15;;
55718;SDS011;41623;46.104;19.656;2023-01-29T02:17:07;9.25;;;4.78;;
55718;SDS011;41623;46.104;19.656;2023-01-29T02:19:50;7.72;;;5.03;;
55718;SDS011;41623;46.104;19.656;2023-01-29T02:22:23;9.85;;;5.05;;
55718;SDS011;41623;46.104;19.656;2023-01-29T02:33:13;10.80;;;6.43;;
55718;SDS011;41623;46.104;19.656;2023-01-29T02:35:37;15.65;;;8.02;;
55718;SDS011;41623;46.104;19.656;2023-01-29T02:38:09;16.10;;;6.13;;
55718;SDS011;41623;46.104;19.656;2023-01-29T02:40:39;7.82;;;4.90;;
55718;SDS011;41623;46.104;19.656;2023-01-29T02:43:15;14.93;;;6.82;;
55718;SDS011;41623;46.104;19.656;2023-01-29T02:48:23;15.40;;;7.85;;
55718;SDS011;41623;46.104;19.656;2023-01-29T02:51:01;14.70;;;6.25;;
55718;SDS011;41623;46.104;19.656;2023-01-29T02:56:00;12.02;;;4.75;;
55718;SDS011;41623;46.104;19.656;2023-01-29T02:58:30;11.13;;;5.53;;
55718;SDS011;41623;46.104;19.656;2023-01-29T03:00:59;13.05;;;6.10;;
55718;SDS011;41623;46.104;19.656;2023-01-29T03:03:33;22.35;;;8.38;;
55718;SDS011;41623;46.104;19.656;2023-01-29T03:06:16;15.75;;;6.60;;
55718;SDS011;41623;46.104;19.656;2023-01-29T03:08:48;11.75;;;5.43;;
55718;SDS011;41623;46.104;19.656;2023-01-29T03:11:18;17.92;;;8.48;;
55718;SDS011;41623;46.104;19.656;2023-01-29T03:16:13;9.55;;;5.65;;
55718;SDS011;41623;46.104;19.656;2023-01-29T03:18:44;17.67;;;8.07;;
55718;SDS011;41623;46.104;19.656;2023-01-29T03:21:16;19.48;;;7.25;;
55718;SDS011;41623;46.104;19.656;2023-01-29T03:24:01;7.95;;;4.85;;
55718;SDS011;41623;46.104;19.656;2023-01-29T03:26:47;17.98;;;6.65;;
55718;SDS011;41623;46.104;19.656;2023-01-29T03:29:31;12.35;;;6.18;;
55718;SDS011;41623;46.104;19.656;2023-01-29T03:32:18;10.27;;;5.47;;
55718;SDS011;41623;46.104;19.656;2023-01-29T03:34:47;15.73;;;6.13;;
55718;SDS011;41623;46.104;19.656;2023-01-29T03:39:54;7.68;;;5.35;;
55718;SDS011;41623;46.104;19.656;2023-01-29T03:42:34;17.77;;;6.60;;
55718;SDS011;41623;46.104;19.656;2023-01-29T03:50:31;10.20;;;4.78;;
55718;SDS011;41623;46.104;19.656;2023-01-29T03:53:01;7.63;;;4.80;;
55718;SDS011;41623;46.104;19.656;2023-01-29T03:58:24;17.45;;;6.63;;
55718;SDS011;41623;46.104;19.656;2023-01-29T04:01:03;9.10;;;5.38;;
55718;SDS011;41623;46.104;19.656;2023-01-29T04:03:37;9.70;;;3.80;;
55718;SDS011;41623;46.104;19.656;2023-01-29T04:08:34;7.68;;;5.07;;
55718;SDS011;41623;46.104;19.656;2023-01-29T04:11:05;13.60;;;5.28;;
55718;SDS011;41623;46.104;19.656;2023-01-29T04:13:34;14.07;;;5.25;;
55718;SDS011;41623;46.104;19.656;2023-01-29T04:16:01;11.95;;;5.32;;
55718;SDS011;41623;46.104;19.656;2023-01-29T04:18:30;14.80;;;6.53;;
55718;SDS011;41623;46.104;19.656;2023-01-29T04:20:57;15.45;;;6.10;;
55718;SDS011;41623;46.104;19.656;2023-01-29T04:23:24;9.45;;;5.20;;
55718;SDS011;41623;46.104;19.656;2023-01-29T04:25:59;12.43;;;5.50;;
55718;SDS011;41623;46.104;19.656;2023-01-29T04:31:33;8.10;;;4.60;;
55718;SDS011;41623;46.104;19.656;2023-01-29T04:34:12;4.28;;;3.40;;
55718;SDS011;41623;46.104;19.656;2023-01-29T04:42:05;11.40;;;3.78;;
55718;SDS011;41623;46.104;19.656;2023-01-29T04:49:46;6.40;;;3.78;;
55718;SDS011;41623;46.104;19.656;2023-01-29T04:52:15;7.40;;;3.80;;
55718;SDS011;41623;46.104;19.656;2023-01-29T04:54:49;10.20;;;3.45;;
55718;SDS011;41623;46.104;19.656;2023-01-29T04:57:25;4.28;;;3.03;;
55718;SDS011;41623;46.104;19.656;2023-01-29T04:59:57;6.50;;;3.28;;
55718;SDS011;41623;46.104;19.656;2023-01-29T05:02:24;12.75;;;5.00;;
55718;SDS011;41623;46.104;19.656;2023-01-29T05:04:52;14.13;;;5.78;;
55718;SDS011;41623;46.104;19.656;2023-01-29T05:07:19;10.18;;;4.93;;
55718;SDS011;41623;46.104;19.656;2023-01-29T05:09:46;11.18;;;5.68;;
55718;SDS011;41623;46.104;19.656;2023-01-29T05:12:13;13.13;;;5.80;;
55718;SDS011;41623;46.104;19.656;2023-01-29T05:14:40;10.13;;;5.63;;
55718;SDS011;41623;46.104;19.656;2023-01-29T05:17:09;15.75;;;6.15;;
55718;SDS011;41623;46.104;19.656;2023-01-29T05:19:37;11.48;;;5.68;;
55718;SDS011;41623;46.104;19.656;2023-01-29T05:22:04;9.50;;;4.70;;
55718;SDS011;41623;46.104;19.656;2023-01-29T05:24:30;9.23;;;4.18;;
55718;SDS011;41623;46.104;19.656;2023-01-29T05:26:56;12.35;;;5.22;;
55718;SDS011;41623;46.104;19.656;2023-01-29T05:29:44;7.93;;;4.07;;
55718;SDS011;41623;46.104;19.656;2023-01-29T05:32:11;6.25;;;4.07;;
55718;SDS011;41623;46.104;19.656;2023-01-29T05:34:37;9.30;;;5.35;;
55718;SDS011;41623;46.104;19.656;2023-01-29T05:37:04;6.40;;;3.90;;
55718;SDS011;41623;46.104;19.656;2023-01-29T05:39:30;5.97;;;3.85;;
55718;SDS011;41623;46.104;19.656;2023-01-29T05:41:56;9.70;;;4.88;;
55718;SDS011;41623;46.104;19.656;2023-01-29T05:44:22;6.90;;;4.35;;
55718;SDS011;41623;46.104;19.656;2023-01-29T05:46:48;8.65;;;3.90;;
55718;SDS011;41623;46.104;19.656;2023-01-29T05:49:15;12.77;;;5.68;;
55718;SDS011;41623;46.104;19.656;2023-01-29T05:51:42;9.70;;;5.60;;
55718;SDS011;41623;46.104;19.656;2023-01-29T05:54:10;9.10;;;4.55;;
55718;SDS011;41623;46.104;19.656;2023-01-29T05:56:36;4.93;;;3.20;;
55718;SDS011;41623;46.104;19.656;2023-01-29T05:59:02;9.95;;;5.13;;
55718;SDS011;41623;46.104;19.656;2023-01-29T06:01:29;6.68;;;4.40;;
55718;SDS011;41623;46.104;19.656;2023-01-29T06:03:55;10.38;;;4.75;;
55718;SDS011;41623;46.104;19.656;2023-01-29T06:06:21;10.00;;;3.95;;
55718;SDS011;41623;46.104;19.656;2023-01-29T06:08:47;10.52;;;4.18;;
55718;SDS011;41623;46.104;19.656;2023-01-29T06:11:14;4.80;;;3.13;;
55718;SDS011;41623;46.104;19.656;2023-01-29T06:13:42;4.97;;;2.88;;
55718;SDS011;41623;46.104;19.656;2023-01-29T06:16:10;18.13;;;5.53;;
55718;SDS011;41623;46.104;19.656;2023-01-29T06:18:37;10.85;;;5.43;;
55718;SDS011;41623;46.104;19.656;2023-01-29T06:21:04;8.45;;;4.65;;
55718;SDS011;41623;46.104;19.656;2023-01-29T06:23:30;7.07;;;4.55;;
55718;SDS011;41623;46.104;19.656;2023-01-29T06:26:03;7.75;;;3.50;;
55718;SDS011;41623;46.104;19.656;2023-01-29T06:28:30;5.72;;;3.15;;
55718;SDS011;41623;46.104;19.656;2023-01-29T06:30:57;4.05;;;2.65;;
55718;SDS011;41623;46.104;19.656;2023-01-29T06:33:23;8.45;;;2.95;;
55718;SDS011;41623;46.104;19.656;2023-01-29T06:35:54;6.88;;;3.70;;
55718;SDS011;41623;46.104;19.656;2023-01-29T06:38:20;8.65;;;3.10;;
55718;SDS011;41623;46.104;19.656;2023-01-29T06:40:46;8.05;;;3.83;;
55718;SDS011;41623;46.104;19.656;2023-01-29T06:43:12;5.95;;;4.22;;
55718;SDS011;41623;46.104;19.656;2023-01-29T06:45:44;10.85;;;4.07;;
55718;SDS011;41623;46.104;19.656;2023-01-29T06:48:10;10.57;;;4.40;;
55718;SDS011;41623;46.104;19.656;2023-01-29T06:50:36;5.90;;;3.72;;
55718;SDS011;41623;46.104;19.656;2023-01-29T06:53:02;9.63;;;4.00;;
55718;SDS011;41623;46.104;19.656;2023-01-29T06:55:28;7.35;;;3.58;;
55718;SDS011;41623;46.104;19.656;2023-01-29T06:57:54;5.75;;;3.85;;
55718;SDS011;41623;46.104;19.656;2023-01-29T07:00:21;6.97;;;3.72;;
55718;SDS011;41623;46.104;19.656;2023-01-29T07:02:50;5.95;;;3.70;;
55718;SDS011;41623;46.104;19.656;2023-01-29T07:05:16;6.20;;;3.47;;
55718;SDS011;41623;46.104;19.656;2023-01-29T07:07:42;20.48;;;6.05;;
55718;SDS011;41623;46.104;19.656;2023-01-29T07:10:08;18.75;;;6.93;;
55718;SDS011;41623;46.104;19.656;2023-01-29T07:12:34;14.40;;;6.57;;
55718;SDS011;41623;46.104;19.656;2023-01-29T07:15:00;6.65;;;4.25;;
55718;SDS011;41623;46.104;19.656;2023-01-29T07:17:26;10.20;;;4.82;;
55718;SDS011;41623;46.104;19.656;2023-01-29T07:19:52;6.32;;;4.05;;
55718;SDS011;41623;46.104;19.656;2023-01-29T07:22:18;16.60;;;7.13;;
55718;SDS011;41623;46.104;19.656;2023-01-29T07:24:44;17.65;;;7.65;;
55718;SDS011;41623;46.104;19.656;2023-01-29T07:27:12;22.88;;;11.27;;
55718;SDS011;41623;46.104;19.656;2023-01-29T07:29:38;38.80;;;14.68;;
55718;SDS011;41623;46.104;19.656;2023-01-29T07:32:04;42.83;;;17.60;;
55718;SDS011;41623;46.104;19.656;2023-01-29T07:34:31;102.88;;;26.65;;
55718;SDS011;41623;46.104;19.656;2023-01-29T07:36:58;74.03;;;27.55;;
55718;SDS011;41623;46.104;19.656;2023-01-29T07:39:24;51.03;;;19.40;;
55718;SDS011;41623;46.104;19.656;2023-01-29T07:41:50;36.38;;;17.25;;
55718;SDS011;41623;46.104;19.656;2023-01-29T07:44:16;36.13;;;15.52;;
55718;SDS011;41623;46.104;19.656;2023-01-29T07:46:42;19.75;;;10.88;;
55718;SDS011;41623;46.104;19.656;2023-01-29T07:49:08;19.92;;;9.48;;
55718;SDS011;41623;46.104;19.656;2023-01-29T07:51:34;13.45;;;7.32;;
55718;SDS011;41623;46.104;19.656;2023-01-29T07:54:00;17.95;;;9.40;;
55718;SDS011;41623;46.104;19.656;2023-01-29T07:56:26;7.97;;;4.55;;
55718;SDS011;41623;46.104;19.656;2023-01-29T07:58:53;5.15;;;3.60;;
55718;SDS011;41623;46.104;19.656;2023-01-29T08:01:19;7.20;;;3.40;;
55718;SDS011;41623;46.104;19.656;2023-01-29T08:03:45;5.15;;;3.55;;
55718;SDS011;41623;46.104;19.656;2023-01-29T08:06:11;10.95;;;5.28;;
55718;SDS011;41623;46.104;19.656;2023-01-29T08:08:37;12.73;;;5.05;;
55718;SDS011;41623;46.104;19.656;2023-01-29T08:11:03;8.50;;;3.30;;
55718;SDS011;41623;46.104;19.656;2023-01-29T08:13:30;8.02;;;3.85;;
55718;SDS011;41623;46.104;19.656;2023-01-29T08:16:00;8.35;;;4.53;;
55718;SDS011;41623;46.104;19.656;2023-01-29T08:18:26;6.28;;;3.95;;
55718;SDS011;41623;46.104;19.656;2023-01-29T08:20:52;9.30;;;5.05;;
55718;SDS011;41623;46.104;19.656;2023-01-29T08:23:18;4.90;;;3.28;;
55718;SDS011;41623;46.104;19.656;2023-01-29T08:25:44;7.07;;;4.07;;
55718;SDS011;41623;46.104;19.656;2023-01-29T08:28:10;14.68;;;5.47;;
55718;SDS011;41623;46.104;19.656;2023-01-29T08:30:36;4.72;;;3.42;;
55718;SDS011;41623;46.104;19.656;2023-01-29T08:33:03;8.68;;;4.22;;
55718;SDS011;41623;46.104;19.656;2023-01-29T08:35:29;19.73;;;5.47;;
55718;SDS011;41623;46.104;19.656;2023-01-29T08:38:00;14.60;;;6.35;;
55718;SDS011;41623;46.104;19.656;2023-01-29T08:40:27;14.98;;;6.15;;
55718;SDS011;41623;46.104;19.656;2023-01-29T08:42:59;7.10;;;4.50;;
55718;SDS011;41623;46.104;19.656;2023-01-29T08:45:25;14.55;;;4.45;;
55718;SDS011;41623;46.104;19.656;2023-01-29T08:47:51;13.20;;;5.07;;
55718;SDS011;41623;46.104;19.656;2023-01-29T08:50:17;8.30;;;4.45;;
55718;SDS011;41623;46.104;19.656;2023-01-29T08:52:44;9.88;;;4.53;;
55718;SDS011;41623;46.104;19.656;2023-01-29T08:55:10;11.32;;;3.90;;
55718;SDS011;41623;46.104;19.656;2023-01-29T08:57:37;11.57;;;5.32;;
55718;SDS011;41623;46.104;19.656;2023-01-29T09:00:04;15.18;;;5.75;;
55718;SDS011;41623;46.104;19.656;2023-01-29T09:02:30;7.78;;;4.50;;
55718;SDS011;41623;46.104;19.656;2023-01-29T09:04:56;10.32;;;4.72;;
55718;SDS011;41623;46.104;19.656;2023-01-29T09:07:22;7.47;;;4.03;;
55718;SDS011;41623;46.104;19.656;2023-01-29T09:09:48;10.32;;;4.50;;
55718;SDS011;41623;46.104;19.656;2023-01-29T09:12:14;6.78;;;4.03;;
55718;SDS011;41623;46.104;19.656;2023-01-29T09:14:41;14.95;;;5.20;;
55718;SDS011;41623;46.104;19.656;2023-01-29T09:17:08;10.88;;;5.28;;
55718;SDS011;41623;46.104;19.656;2023-01-29T09:19:34;10.63;;;5.20;;
55718;SDS011;41623;46.104;19.656;2023-01-29T09:22:00;9.48;;;4.35;;
55718;SDS011;41623;46.104;19.656;2023-01-29T09:24:26;5.53;;;3.30;;
55718;SDS011;41623;46.104;19.656;2023-01-29T09:26:52;6.78;;;3.60;;
55718;SDS011;41623;46.104;19.656;2023-01-29T09:29:18;7.00;;;4.30;;
55718;SDS011;41623;46.104;19.656;2023-01-29T09:31:44;16.98;;;4.45;;
55718;SDS011;41623;46.104;19.656;2023-01-29T09:34:10;7.30;;;3.03;;
55718;SDS011;41623;46.104;19.656;2023-01-29T09:36:36;5.70;;;3.00;;
55718;SDS011;41623;46.104;19.656;2023-01-29T09:39:03;3.58;;;2.53;;
55718;SDS011;41623;46.104;19.656;2023-01-29T09:41:37;4.50;;;2.85;;
55718;SDS011;41623;46.104;19.656;2023-01-29T09:44:17;2.47;;;2.28;;
55718;SDS011;41623;46.104;19.656;2023-01-29T09:46:45;4.15;;;3.65;;
55718;SDS011;41623;46.104;19.656;2023-01-29T09:51:51;12.40;;;3.88;;
55718;SDS011;41623;46.104;19.656;2023-01-29T09:54:21;7.50;;;3.53;;
55718;SDS011;41623;46.104;19.656;2023-01-29T09:56:48;6.57;;;3.28;;
55718;SDS011;41623;46.104;19.656;2023-01-29T09:59:15;10.68;;;4.03;;
55718;SDS011;41623;46.104;19.656;2023-01-29T10:11:59;5.80;;;3.95;;
55718;SDS011;41623;46.104;19.656;2023-01-29T10:20:12;8.10;;;4.43;;
55718;SDS011;41623;46.104;19.656;2023-01-29T10:25:10;10.40;;;4.78;;
55718;SDS011;41623;46.104;19.656;2023-01-29T10:27:39;10.07;;;5.07;;
55718;SDS011;41623;46.104;19.656;2023-01-29T10:30:07;10.75;;;5.63;;
55718;SDS011;41623;46.104;19.656;2023-01-29T10:32:35;11.77;;;4.95;;
55718;SDS011;41623;46.104;19.656;2023-01-29T10:35:03;17.00;;;6.30;;
55718;SDS011;41623;46.104;19.656;2023-01-29T10:37:36;9.32;;;3.25;;
55718;SDS011;41623;46.104;19.656;2023-01-29T10:42:43;10.07;;;5.75;;
55718;SDS011;41623;46.104;19.656;2023-01-29T10:45:15;14.15;;;7.13;;
55718;SDS011;41623;46.104;19.656;2023-01-29T10:55:42;12.25;;;5.70;;
55718;SDS011;41623;46.104;19.656;2023-01-29T11:00:56;10.32;;;4.03;;
55718;SDS011;41623;46.104;19.656;2023-01-29T11:03:23;5.20;;;2.65;;
55718;SDS011;41623;46.104;19.656;2023-01-29T11:11:20;34.55;;;11.32;;
55718;SDS011;41623;46.104;19.656;2023-01-29T11:14:00;18.10;;;9.48;;
55718;SDS011;41623;46.104;19.656;2023-01-29T11:16:31;13.85;;;7.75;;
55718;SDS011;41623;46.104;19.656;2023-01-29T11:19:04;13.13;;;5.38;;
55718;SDS011;41623;46.104;19.656;2023-01-29T11:21:30;15.57;;;7.35;;
55718;SDS011;41623;46.104;19.656;2023-01-29T11:24:04;13.65;;;5.82;;
55718;SDS011;41623;46.104;19.656;2023-01-29T11:26:32;14.73;;;7.90;;
55718;SDS011;41623;46.104;19.656;2023-01-29T11:28:58;19.70;;;6.63;;
55718;SDS011;41623;46.104;19.656;2023-01-29T11:31:25;26.27;;;9.93;;
55718;SDS011;41623;46.104;19.656;2023-01-29T11:33:53;26.42;;;11.30;;
55718;SDS011;41623;46.104;19.656;2023-01-29T11:36:30;26.80;;;12.50;;
55718;SDS011;41623;46.104;19.656;2023-01-29T11:42:20;17.40;;;7.50;;
55718;SDS011;41623;46.104;19.656;2023-01-29T11:47:25;6.45;;;3.95;;
55718;SDS011;41623;46.104;19.656;2023-01-29T11:50:00;14.50;;;5.90;;
55718;SDS011;41623;46.104;19.656;2023-01-29T11:52:33;13.23;;;5.97;;
55718;SDS011;41623;46.104;19.656;2023-01-29T11:55:02;4.65;;;3.20;;
55718;SDS011;41623;46.104;19.656;2023-01-29T11:57:36;13.20;;;5.47;;
55718;SDS011;41623;46.104;19.656;2023-01-29T12:02:34;10.63;;;4.18;;
55718;SDS011;41623;46.104;19.656;2023-01-29T12:05:03;9.38;;;4.20;;
55718;SDS011;41623;46.104;19.656;2023-01-29T12:07:31;8.52;;;3.90;;
55718;SDS011;41623;46.104;19.656;2023-01-29T12:09:57;3.33;;;2.17;;
55718;SDS011;41623;46.104;19.656;2023-01-29T12:18:02;6.82;;;4.28;;
55718;SDS011;41623;46.104;19.656;2023-01-29T12:20:35;8.13;;;4.25;;
55718;SDS011;41623;46.104;19.656;2023-01-29T12:23:10;8.02;;;3.90;;
55718;SDS011;41623;46.104;19.656;2023-01-29T12:25:49;15.50;;;6.07;;
55718;SDS011;41623;46.104;19.656;2023-01-29T12:33:45;11.93;;;5.75;;
55718;SDS011;41623;46.104;19.656;2023-01-29T12:36:24;15.70;;;7.18;;
55718;SDS011;41623;46.104;19.656;2023-01-29T12:38:53;12.02;;;6.15;;
55718;SDS011;41623;46.104;19.656;2023-01-29T12:41:23;13.73;;;7.43;;
55718;SDS011;41623;46.104;19.656;2023-01-29T12:43:54;11.20;;;5.50;;
55718;SDS011;41623;46.104;19.656;2023-01-29T12:46:23;14.23;;;6.45;;
55718;SDS011;41623;46.104;19.656;2023-01-29T12:48:51;12.80;;;6.32;;
55718;SDS011;41623;46.104;19.656;2023-01-29T12:51:23;17.80;;;6.20;;
55718;SDS011;41623;46.104;19.656;2023-01-29T12:54:02;8.77;;;5.63;;
55718;SDS011;41623;46.104;19.656;2023-01-29T12:56:33;10.13;;;5.68;;
55718;SDS011;41623;46.104;19.656;2023-01-29T12:59:03;11.05;;;4.78;;
55718;SDS011;41623;46.104;19.656;2023-01-29T13:01:53;8.43;;;4.75;;
55718;SDS011;41623;46.104;19.656;2023-01-29T13:04:29;13.85;;;6.03;;
55718;SDS011;41623;46.104;19.656;2023-01-29T13:07:01;13.40;;;7.18;;
55718;SDS011;41623;46.104;19.656;2023-01-29T13:09:29;21.50;;;6.80;;
55718;SDS011;41623;46.104;19.656;2023-01-29T13:11:58;11.88;;;5.78;;
55718;SDS011;41623;46.104;19.656;2023-01-29T13:14:26;13.82;;;6.57;;
55718;SDS011;41623;46.104;19.656;2023-01-29T13:17:01;11.52;;;3.65;;
55718;SDS011;41623;46.104;19.656;2023-01-29T13:21:57;9.80;;;5.05;;
55718;SDS011;41623;46.104;19.656;2023-01-29T13:24:24;7.95;;;4.45;;
55718;SDS011;41623;46.104;19.656;2023-01-29T13:26:52;8.63;;;4.97;;
55718;SDS011;41623;46.104;19.656;2023-01-29T13:29:22;10.98;;;5.18;;
55718;SDS011;41623;46.104;19.656;2023-01-29T13:31:49;23.05;;;9.90;;
55718;SDS011;41623;46.104;19.656;2023-01-29T13:34:20;17.67;;;7.28;;
55718;SDS011;41623;46.104;19.656;2023-01-29T13:36:50;15.65;;;6.13;;
55718;SDS011;41623;46.104;19.656;2023-01-29T13:39:30;8.85;;;4.75;;
55718;SDS011;41623;46.104;19.656;2023-01-29T13:41:59;10.82;;;5.18;;
55718;SDS011;41623;46.104;19.656;2023-01-29T13:44:27;5.75;;;4.35;;
55718;SDS011;41623;46.104;19.656;2023-01-29T13:46:57;10.80;;;5.30;;
55718;SDS011;41623;46.104;19.656;2023-01-29T13:49:26;17.55;;;5.22;;
55718;SDS011;41623;46.104;19.656;2023-01-29T13:51:54;5.57;;;3.33;;
55718;SDS011;41623;46.104;19.656;2023-01-29T13:54:22;7.03;;;4.32;;
55718;SDS011;41623;46.104;19.656;2023-01-29T14:00:01;10.10;;;4.82;;
55718;SDS011;41623;46.104;19.656;2023-01-29T14:04:52;6.13;;;3.80;;
55718;SDS011;41623;46.104;19.656;2023-01-29T14:10:12;8.82;;;3.50;;
55718;SDS011;41623;46.104;19.656;2023-01-29T14:15:13;7.20;;;2.95;;
55718;SDS011;41623;46.104;19.656;2023-01-29T14:17:52;9.73;;;3.55;;
55718;SDS011;41623;46.104;19.656;2023-01-29T14:20:20;11.55;;;4.68;;
55718;SDS011;41623;46.104;19.656;2023-01-29T14:22:55;16.25;;;5.80;;
55718;SDS011;41623;46.104;19.656;2023-01-29T14:25:27;5.93;;;4.45;;
55718;SDS011;41623;46.104;19.656;2023-01-29T14:27:53;11.57;;;4.53;;
55718;SDS011;41623;46.104;19.656;2023-01-29T14:30:19;6.38;;;3.58;;
55718;SDS011;41623;46.104;19.656;2023-01-29T14:32:48;8.98;;;3.30;;
55718;SDS011;41623;46.104;19.656;2023-01-29T14:35:19;6.90;;;4.22;;
55718;SDS011;41623;46.104;19.656;2023-01-29T14:37:46;10.60;;;3.95;;
55718;SDS011;41623;46.104;19.656;2023-01-29T14:40:18;7.47;;;3.15;;
55718;SDS011;41623;46.104;19.656;2023-01-29T14:55:45;9.30;;;3.80;;
55718;SDS011;41623;46.104;19.656;2023-01-29T14:58:14;11.57;;;6.00;;
55718;SDS011;41623;46.104;19.656;2023-01-29T15:00:42;10.18;;;4.50;;
55718;SDS011;41623;46.104;19.656;2023-01-29T15:03:12;8.25;;;4.13;;
55718;SDS011;41623;46.104;19.656;2023-01-29T15:05:40;12.98;;;6.20;;
55718;SDS011;41623;46.104;19.656;2023-01-29T15:08:07;9.00;;;4.47;;
55718;SDS011;41623;46.104;19.656;2023-01-29T15:11:11;13.25;;;6.05;;
55718;SDS011;41623;46.104;19.656;2023-01-29T15:16:52;23.60;;;9.60;;
55718;SDS011;41623;46.104;19.656;2023-01-29T15:19:25;19.20;;;8.73;;
55718;SDS011;41623;46.104;19.656;2023-01-29T15:22:11;18.42;;;6.88;;
55718;SDS011;41623;46.104;19.656;2023-01-29T15:24:39;17.10;;;7.50;;
55718;SDS011;41623;46.104;19.656;2023-01-29T15:27:06;13.70;;;6.60;;
55718;SDS011;41623;46.104;19.656;2023-01-29T15:29:34;14.02;;;6.20;;
55718;SDS011;41623;46.104;19.656;2023-01-29T15:32:01;5.50;;;3.88;;
55718;SDS011;41623;46.104;19.656;2023-01-29T15:34:27;9.05;;;3.38;;
55718;SDS011;41623;46.104;19.656;2023-01-29T15:36:53;10.02;;;4.97;;
55718;SDS011;41623;46.104;19.656;2023-01-29T15:39:20;19.15;;;6.80;;
55718;SDS011;41623;46.104;19.656;2023-01-29T15:41:47;7.60;;;4.22;;
55718;SDS011;41623;46.104;19.656;2023-01-29T15:44:17;11.57;;;5.57;;
55718;SDS011;41623;46.104;19.656;2023-01-29T15:46:44;15.45;;;6.70;;
55718;SDS011;41623;46.104;19.656;2023-01-29T15:49:45;13.90;;;7.50;;
55718;SDS011;41623;46.104;19.656;2023-01-29T15:52:05;15.30;;;7.57;;
55718;SDS011;41623;46.104;19.656;2023-01-29T15:54:32;18.40;;;8.15;;
55718;SDS011;41623;46.104;19.656;2023-01-29T15:56:59;8.27;;;3.75;;
55718;SDS011;41623;46.104;19.656;2023-01-29T15:59:28;18.65;;;6.78;;
55718;SDS011;41623;46.104;19.656;2023-01-29T16:01:58;8.95;;;4.38;;
55718;SDS011;41623;46.104;19.656;2023-01-29T16:04:42;4.65;;;3.67;;
55718;SDS011;41623;46.104;19.656;2023-01-29T16:07:08;12.02;;;4.90;;
55718;SDS011;41623;46.104;19.656;2023-01-29T16:09:35;11.32;;;5.93;;
55718;SDS011;41623;46.104;19.656;2023-01-29T16:12:01;11.43;;;5.55;;
55718;SDS011;41623;46.104;19.656;2023-01-29T16:14:29;11.23;;;4.35;;
55718;SDS011;41623;46.104;19.656;2023-01-29T16:16:56;25.58;;;6.32;;
55718;SDS011;41623;46.104;19.656;2023-01-29T16:19:26;28.58;;;8.18;;
55718;SDS011;41623;46.104;19.656;2023-01-29T16:21:57;14.70;;;6.13;;
55718;SDS011;41623;46.104;19.656;2023-01-29T16:24:24;10.15;;;4.85;;
55718;SDS011;41623;46.104;19.656;2023-01-29T16:26:51;8.75;;;4.47;;
55718;SDS011;41623;46.104;19.656;2023-01-29T16:29:20;9.55;;;5.32;;
55718;SDS011;41623;46.104;19.656;2023-01-29T16:31:47;8.38;;;4.32;;
55718;SDS011;41623;46.104;19.656;2023-01-29T16:36:47;13.55;;;7.55;;
55718;SDS011;41623;46.104;19.656;2023-01-29T16:39:17;14.50;;;7.88;;
55718;SDS011;41623;46.104;19.656;2023-01-29T16:41:44;22.02;;;9.23;;
55718;SDS011;41623;46.104;19.656;2023-01-29T16:44:34;8.98;;;5.72;;
55718;SDS011;41623;46.104;19.656;2023-01-29T16:47:10;6.30;;;4.53;;
55718;SDS011;41623;46.104;19.656;2023-01-29T16:54:47;6.03;;;3.53;;
55718;SDS011;41623;46.104;19.656;2023-01-29T16:57:14;8.18;;;6.10;;
55718;SDS011;41623;46.104;19.656;2023-01-29T16:59:41;16.85;;;6.18;;
55718;SDS011;41623;46.104;19.656;2023-01-29T17:02:25;12.18;;;6.32;;